Airfield :
LOGIN :

Register | Disclaimer

   EN    FR    IT 

 










Legend :    VFR   Marginal VFR   IFR   Intensive IFR   Very Intensive IFR
Visi :
Ceiling :
>= 8 km
>= 3000ft
5 to 8 km
1000 to 3000 ft
1500m to 5 km
500 to 1000 ft
800 to 1500m
200 to 500 ft
< 800m
< 200 ft
Symbols :   Thunderstorms  Fog  Heavy snow  Heavy precipitations  Wind > 20 kt
SIGMETs :     Misc.  Thunderstorms  Icing  Turbulence  Mountain Waves  Volcanic Ashes






- Airport Elevation : 489 ft
- IATA code : GDN


EPGD - Gdansk

CURRENT METAR :
  • 221430Z 28022KT 9999 BKN020 03/00 Q1011

EXPIRED METARs :
  • 221400Z 28016KT 9999 -SHRA BKN012 02/01 Q1011
  • 221330Z 27015KT 9999 -SHSN BKN004CB 02/00 Q1011
  • 221300Z 29022KT 6000 -SHSN FEW004 BKN009CB 02/00 Q1011
  • 221230Z 28018KT 9999 -SHRA SCT003 BKN010TCU 03/01 Q1010
  • 221200Z 28021KT 9999 -SHRA FEW006 FEW010CB BKN012 03/01 Q1010

TAF AMD TAF EPGD
Valid from the 22 at 13:00 until the 23 at 12:00 UTC


221307Z 2213/2312 26018KT 9999 BKN025
TEMPO 2213/2224 28022G38KT SHRA BKN008 BKN012CB
PROB40
TEMPO 2213/2218 3000 SHRASN SCT004 BKN008CB
TEMPO 2310/2312 30018G30KT



MET'MAP, your aeronautical weather chart ! - Copyright ORBIFLY December 2007 - Disclaimer

ORBIFLY MET'MAP TEAM :

Programming & Development : Alexandra Zaïnal
Concept & original design : Baudouin d'Aumeries
Assistance for programming : Marc-Olivier Méhu
Technical & hardware support : Manuel Goepfert

Contact : metmap@orbifly.com




SOURCES & CREDITS :

   NOAA